Time;durP1;ratioP1;P1;durP2;ratioP2;P2;SDS_P1;SDS_P2;PMS_P1;PMS_P2;Temp;Humidity;BMP_temperature;BMP_pressure;BME280_temperature;BME280_humidity;BME280_pressure;Samples;Min_cycle;Max_cycle;Signal;HPM_P1;HPM_P2
2021/07/17 00:00:59;;;;;;;30.95;8.85;;;;;;;16.77;100.00;101155.59;4847247;29;20033;-83
2021/07/17 00:03:24;;;;;;;33.30;10.60;;;;;;;16.74;100.00;101158.28;4863273;29;20062;-84
2021/07/17 00:05:50;;;;;;;35.38;9.27;;;;;;;16.74;100.00;101157.44;4846946;29;20128;-83
2021/07/17 00:08:15;;;;;;;32.60;8.20;;;;;;;16.71;100.00;101163.63;4846756;29;20029;-83
2021/07/17 00:10:46;;;;;;;29.77;8.77;;;;;;;16.68;100.00;101158.50;4847184;29;20051;-83
2021/07/17 00:13:11;;;;;;;31.27;9.25;;;;;;;16.71;100.00;101158.38;4846480;29;20034;-84
2021/07/17 00:15:37;;;;;;;34.40;9.52;;;;;;;16.72;100.00;101159.28;4863190;29;20036;-83
2021/07/17 00:18:03;;;;;;;34.85;8.85;;;;;;;16.69;100.00;101160.22;4845685;29;20025;-84
2021/07/17 00:20:29;;;;;;;36.58;9.55;;;;;;;16.66;100.00;101159.47;4845834;29;20025;-84
2021/07/17 00:22:54;;;;;;;34.05;8.27;;;;;;;16.71;100.00;101157.53;4862581;29;20033;-84
2021/07/17 00:25:21;;;;;;;32.67;8.30;;;;;;;16.68;100.00;101160.25;4846237;29;20041;-84
2021/07/17 00:27:47;;;;;;;34.40;9.48;;;;;;;16.65;100.00;101160.38;4846006;29;20053;-84
2021/07/17 00:30:13;;;;;;;34.10;8.32;;;;;;;16.62;100.00;101156.09;4846243;29;20109;-84
2021/07/17 00:32:39;;;;;;;30.08;8.82;;;;;;;16.60;100.00;101155.31;4845967;29;20089;-84
2021/07/17 00:35:05;;;;;;;33.90;8.93;;;;;;;16.63;100.00;101157.81;4862695;29;20067;-84
2021/07/17 00:37:31;;;;;;;39.33;9.32;;;;;;;16.58;100.00;101155.34;4845637;29;20487;-84
2021/07/17 00:39:56;;;;;;;37.35;9.13;;;;;;;16.61;100.00;101158.78;4846128;29;20033;-84
2021/07/17 00:42:21;;;;;;;32.58;9.23;;;;;;;16.54;100.00;101161.59;4862119;29;20029;-84
2021/07/17 00:44:47;;;;;;;29.00;8.65;;;;;;;16.57;100.00;101158.88;4845266;29;20440;-84
2021/07/17 00:47:14;;;;;;;31.35;8.85;;;;;;;16.58;100.00;101151.88;4845251;29;20478;-84
2021/07/17 00:49:39;;;;;;;39.08;10.05;;;;;;;16.57;100.00;101153.63;4845140;29;20057;-84
2021/07/17 00:52:05;;;;;;;28.83;8.00;;;;;;;16.60;100.00;101157.91;4845279;29;20053;-84
2021/07/17 00:54:31;;;;;;;24.80;7.53;;;;;;;16.59;100.00;101150.94;4861619;29;20104;-84
2021/07/17 00:56:59;;;;;;;25.05;6.93;;;;;;;16.57;100.00;101163.25;4845228;29;20029;-84
2021/07/17 00:59:28;;;;;;;37.03;8.80;;;;;;;16.53;100.00;101157.28;4845140;29;20030;-84
2021/07/17 01:01:55;;;;;;;34.13;8.52;;;;;;;16.53;100.00;101159.00;4861464;29;20053;-84
2021/07/17 01:04:21;;;;;;;33.88;7.57;;;;;;;16.55;100.00;101159.81;4861630;29;20029;-84
2021/07/17 01:06:48;;;;;;;39.30;8.38;;;;;;;16.54;100.00;101160.75;4844724;29;20025;-84
2021/07/17 01:09:13;;;;;;;31.90;8.88;;;;;;;16.53;100.00;101159.00;4861222;29;20375;-84
2021/07/17 01:11:38;;;;;;;31.92;8.20;;;;;;;16.52;100.00;101166.00;4844729;29;20037;-84
2021/07/17 01:14:04;;;;;;;30.50;8.07;;;;;;;16.50;100.00;101166.97;4845125;29;20432;-84
2021/07/17 01:16:31;;;;;;;37.42;8.73;;;;;;;16.55;100.00;101159.81;4861170;29;20033;-84
2021/07/17 01:18:56;;;;;;;28.67;8.23;;;;;;;16.49;100.00;101162.66;4861183;29;20108;-84
2021/07/17 01:21:22;;;;;;;25.13;7.68;;;;;;;16.45;100.00;101167.13;4861395;29;20068;-84
2021/07/17 01:23:47;;;;;;;31.75;7.55;;;;;;;16.42;100.00;101167.25;4844550;29;20037;-84
2021/07/17 01:26:15;;;;;;;27.15;7.25;;;;;;;16.43;100.00;101168.09;4861199;29;20025;-84
2021/07/17 01:28:41;;;;;;;31.23;7.95;;;;;;;16.40;100.00;101165.56;4861495;29;20028;-84
2021/07/17 01:31:07;;;;;;;30.13;8.35;;;;;;;16.42;100.00;101174.25;4843857;29;20033;-84
2021/07/17 01:33:34;;;;;;;28.52;7.75;;;;;;;16.45;100.00;101169.75;4861067;29;20049;-84
2021/07/17 01:35:59;;;;;;;32.17;7.47;;;;;;;16.39;100.00;101166.50;4845051;29;20126;-84
2021/07/17 01:38:25;;;;;;;35.05;9.27;;;;;;;16.43;100.00;101168.94;4861192;29;20043;-83
2021/07/17 01:40:51;;;;;;;27.30;8.27;;;;;;;16.44;100.00;101169.78;4844232;29;20112;-84
2021/07/17 01:43:16;;;;;;;26.85;7.40;;;;;;;16.45;100.00;101166.28;4844541;29;20464;-84
2021/07/17 01:45:43;;;;;;;26.98;7.55;;;;;;;16.44;100.00;101169.78;4844766;29;20036;-84
2021/07/17 01:48:09;;;;;;;31.00;8.35;;;;;;;16.41;100.00;101172.50;4844322;29;20053;-84
2021/07/17 01:50:36;;;;;;;25.38;8.02;;;;;;;16.39;100.00;101169.09;4844514;29;20033;-84
2021/07/17 01:53:06;;;;;;;25.23;8.52;;;;;;;16.39;100.00;101171.72;4844890;29;20025;-84
2021/07/17 01:55:32;;;;;;;31.90;8.93;;;;;;;16.38;100.00;101168.25;4844606;29;20025;-84
2021/07/17 01:57:58;;;;;;;28.83;8.23;;;;;;;16.40;100.00;101169.03;4844497;29;20053;-84
2021/07/17 02:00:24;;;;;;;31.13;7.80;;;;;;;16.36;100.00;101162.19;4846268;29;20052;-84
2021/07/17 02:02:51;;;;;;;28.42;8.50;;;;;;;16.31;100.00;101171.94;4844299;29;20040;-84
2021/07/17 02:05:17;;;;;;;26.98;8.07;;;;;;;16.22;100.00;101169.63;4844285;29;20041;-84
2021/07/17 02:07:44;;;;;;;25.42;7.50;;;;;;;16.25;100.00;101159.06;4862210;29;20028;-83
2021/07/17 02:10:12;;;;;;;26.50;7.10;;;;;;;16.21;100.00;101163.53;4860730;29;20026;-83
2021/07/17 02:12:40;;;;;;;29.63;8.43;;;;;;;16.22;100.00;101156.53;4844159;29;20120;-83
2021/07/17 02:15:07;;;;;;;25.40;7.72;;;;;;;16.21;100.00;101168.78;4845453;29;20030;-83
2021/07/17 02:17:33;;;;;;;27.95;7.63;;;;;;;16.17;100.00;101167.19;4860502;29;20033;-84
2021/07/17 02:19:58;;;;;;;25.50;7.50;;;;;;;16.23;100.00;101159.13;4844385;29;20600;-83
2021/07/17 02:22:24;;;;;;;28.90;8.23;;;;;;;16.22;100.00;101156.53;4861508;29;20057;-83
2021/07/17 02:24:51;;;;;;;27.65;7.95;;;;;;;16.21;100.00;101160.94;4844111;29;20093;-83
2021/07/17 02:27:16;;;;;;;24.17;7.93;;;;;;;16.25;100.00;101154.69;4844364;29;20037;-83
2021/07/17 02:29:42;;;;;;;38.10;9.02;;;;;;;16.27;100.00;101155.50;4896390;24;20053;-77
2021/07/17 02:32:07;;;;;;;31.73;9.40;;;;;;;16.27;100.00;101152.03;4843580;29;20034;-77
2021/07/17 02:34:32;;;;;;;27.85;8.30;;;;;;;16.26;100.00;101155.56;4860032;29;20483;-77
2021/07/17 02:36:58;;;;;;;26.55;7.97;;;;;;;16.25;100.00;101161.69;4843530;29;20529;-77
2021/07/17 02:39:24;;;;;;;22.98;7.75;;;;;;;16.26;100.00;101159.03;4843352;29;20025;-77
2021/07/17 02:41:49;;;;;;;27.92;8.95;;;;;;;16.19;100.00;101165.34;4845288;29;20040;-77
2021/07/17 02:44:14;;;;;;;27.55;9.32;;;;;;;16.25;100.00;101159.91;4863753;29;20518;-77
2021/07/17 02:46:39;;;;;;;30.25;8.20;;;;;;;16.21;100.00;101170.53;4846654;29;20029;-77
2021/07/17 02:49:05;;;;;;;26.27;8.07;;;;;;;16.25;100.00;101170.38;4846751;29;20036;-77
2021/07/17 02:51:30;;;;;;;29.65;8.45;;;;;;;16.24;100.00;101168.69;4846803;29;20094;-77
2021/07/17 02:53:55;;;;;;;26.15;8.70;;;;;;;16.25;100.00;101170.38;4846641;29;20029;-77
2021/07/17 02:56:21;;;;;;;30.02;7.68;;;;;;;16.22;100.00;101167.88;4846579;29;20022;-77
2021/07/17 02:58:46;;;;;;;25.95;8.70;;;;;;;16.21;100.00;101170.53;4846598;29;20033;-76
2021/07/17 03:01:11;;;;;;;31.25;9.00;;;;;;;16.26;100.00;101168.66;4863071;29;20029;-77
2021/07/17 03:03:36;;;;;;;27.42;7.95;;;;;;;16.25;100.00;101182.63;4846517;29;20054;-77
2021/07/17 03:06:01;;;;;;;26.40;9.00;;;;;;;16.22;100.00;101180.94;4862993;29;20406;-77
2021/07/17 03:08:27;;;;;;;26.98;8.45;;;;;;;16.23;100.00;101182.69;4846388;29;20024;-77
2021/07/17 03:10:55;;;;;;;20.83;8.45;;;;;;;16.22;100.00;101180.09;4862880;29;20037;-77
2021/07/17 03:13:21;;;;;;;23.88;8.35;;;;;;;16.21;100.00;101183.63;4863493;29;20025;-77
2021/07/17 03:15:50;;;;;;;29.08;8.93;;;;;;;16.18;100.00;101179.34;4862877;29;20391;-77
2021/07/17 03:18:17;;;;;;;26.33;8.57;;;;;;;16.20;100.00;101180.16;4862753;29;20029;-77
2021/07/17 03:20:43;;;;;;;27.77;8.82;;;;;;;16.20;100.00;101172.31;4846152;29;20395;-77
2021/07/17 03:23:08;;;;;;;25.13;9.45;;;;;;;16.22;100.00;101173.09;4846224;29;20034;-77
2021/07/17 03:25:33;;;;;;;26.65;8.05;;;;;;;16.22;100.00;101180.94;4863154;29;20112;-77
2021/07/17 03:27:59;;;;;;;26.23;8.95;;;;;;;16.22;100.00;101180.94;4862742;29;20021;-76
2021/07/17 03:30:24;;;;;;;24.30;8.10;;;;;;;16.22;100.00;101185.34;4862508;29;20108;-77
2021/07/17 03:32:49;;;;;;;20.73;8.35;;;;;;;16.22;100.00;101182.72;4846000;29;20029;-77
2021/07/17 03:35:14;;;;;;;24.52;9.63;;;;;;;16.23;100.00;101182.69;4845907;29;20037;-77
2021/07/17 03:37:40;;;;;;;24.70;8.98;;;;;;;16.25;100.00;101186.09;4862509;29;20026;-76
2021/07/17 03:40:06;;;;;;;23.65;8.23;;;;;;;16.28;100.00;101193.00;4845831;29;20482;-77
2021/07/17 03:42:32;;;;;;;20.02;8.60;;;;;;;16.31;100.00;101191.13;4862704;29;20386;-77
2021/07/17 03:44:57;;;;;;;20.77;8.13;;;;;;;16.32;100.00;101186.78;4862305;29;20036;-77
2021/07/17 03:47:22;;;;;;;22.15;8.70;;;;;;;16.31;100.00;101185.03;4845810;29;20032;-77
2021/07/17 03:49:48;;;;;;;24.67;8.98;;;;;;;16.29;100.00;101181.63;4845690;29;20529;-77
2021/07/17 03:52:14;;;;;;;22.77;8.45;;;;;;;16.32;100.00;101195.47;4861674;29;20033;-77
2021/07/17 03:54:39;;;;;;;19.70;7.93;;;;;;;16.35;100.00;101189.28;4845306;29;20040;-77
2021/07/17 03:57:04;;;;;;;24.50;7.90;;;;;;;16.38;100.00;101180.47;4845616;29;20063;-77
2021/07/17 03:59:30;;;;;;;15.63;7.63;;;;;;;16.37;100.00;101184.00;4845684;29;20040;-77
2021/07/17 04:01:55;;;;;;;21.17;7.93;;;;;;;16.40;100.00;101184.75;4845532;29;20026;-77
2021/07/17 04:04:20;;;;;;;20.13;7.53;;;;;;;16.42;100.00;101189.94;4862114;29;20451;-77
2021/07/17 04:06:46;;;;;;;20.88;6.93;;;;;;;16.40;100.00;101181.28;4861967;29;20049;-77
2021/07/17 04:09:11;;;;;;;15.30;7.22;;;;;;;16.40;100.00;101189.97;4861918;29;20044;-77
2021/07/17 04:11:36;;;;;;;18.65;7.28;;;;;;;16.44;100.00;101185.50;4845289;29;20118;-77
2021/07/17 04:14:02;;;;;;;15.75;6.90;;;;;;;16.43;100.00;101199.50;4845320;29;20036;-76
2021/07/17 04:16:27;;;;;;;15.15;6.30;;;;;;;16.44;100.00;101191.63;4861734;29;20392;-77
2021/07/17 04:18:52;;;;;;;19.70;6.40;;;;;;;16.46;100.00;101187.16;4846034;29;20033;-77
2021/07/17 04:21:18;;;;;;;14.30;5.85;;;;;;;16.46;100.00;101195.03;4845623;29;20036;-77
2021/07/17 04:23:44;;;;;;;17.13;5.55;;;;;;;16.48;100.00;101184.50;4845131;29;20069;-77
2021/07/17 04:26:09;;;;;;;15.13;6.13;;;;;;;16.51;100.00;101192.28;4861875;29;20053;-77
2021/07/17 04:28:35;;;;;;;13.15;6.65;;;;;;;16.52;100.00;101199.22;4861667;29;20029;-77
2021/07/17 04:31:02;;;;;;;14.10;5.22;;;;;;;16.55;100.00;101191.25;4844760;29;20123;-77
2021/07/17 04:33:27;;;;;;;11.38;5.15;;;;;;;16.56;100.00;101196.47;4861520;29;20411;-77
2021/07/17 04:35:53;;;;;;;14.82;5.00;;;;;;;16.57;100.00;101192.91;4844803;29;20033;-77
2021/07/17 04:38:19;;;;;;;15.10;5.30;;;;;;;16.56;100.00;101192.94;4844952;29;20025;-77
2021/07/17 04:40:44;;;;;;;19.23;5.43;;;;;;;16.61;100.00;101201.53;4861227;29;20105;-77
2021/07/17 04:43:10;;;;;;;14.07;5.28;;;;;;;16.60;100.00;101201.59;4861289;29;20034;-77
2021/07/17 04:45:35;;;;;;;10.07;5.15;;;;;;;16.65;100.00;101204.91;4844557;29;20037;-77
2021/07/17 04:48:04;;;;;;;14.27;5.10;;;;;;;16.68;100.00;101205.66;4861532;29;20060;-77
2021/07/17 04:50:30;;;;;;;11.48;4.45;;;;;;;16.71;100.00;101205.53;4844550;29;20125;-77
2021/07/17 04:52:55;;;;;;;10.88;4.40;;;;;;;16.78;100.00;101220.19;4844683;29;20030;-77
2021/07/17 04:55:21;;;;;;;9.48;3.80;;;;;;;16.74;100.00;101210.69;4844734;29;20026;-77
2021/07/17 04:57:46;;;;;;;10.30;3.78;;;;;;;16.86;100.00;101204.22;4845016;29;20029;-77
2021/07/17 05:00:12;;;;;;;11.68;3.60;;;;;;;16.83;100.00;101209.56;4844428;29;20074;-77
2021/07/17 05:02:52;;;;;;;10.13;3.95;;;;;;;16.75;100.00;101209.81;4860959;29;20038;-77
2021/07/17 05:05:19;;;;;;;7.07;3.17;;;;;;;16.83;100.00;101206.09;4844191;29;20044;-77
2021/07/17 05:07:45;;;;;;;7.95;3.30;;;;;;;17.31;100.00;101210.53;4844337;29;20085;-77
2021/07/17 05:10:12;;;;;;;8.23;3.25;;;;;;;17.47;100.00;101214.31;4844319;29;20029;-77
2021/07/17 05:12:38;;;;;;;9.25;3.22;;;;;;;16.98;100.00;101214.28;4844330;29;20509;-77
2021/07/17 05:15:05;;;;;;;11.65;3.33;;;;;;;16.97;100.00;101212.56;4844180;29;20069;-77
2021/07/17 05:17:30;;;;;;;8.07;3.67;;;;;;;16.80;100.00;101215.75;4860757;29;20033;-77
2021/07/17 05:19:56;;;;;;;9.88;3.10;;;;;;;17.53;100.00;101216.72;4860781;29;20037;-77
2021/07/17 05:22:21;;;;;;;10.90;2.60;;;;;;;18.18;100.00;101217.78;4844135;29;20495;-77
2021/07/17 05:24:46;;;;;;;13.07;2.83;;;;;;;18.47;100.00;101213.13;4844673;29;20040;-77
2021/07/17 05:27:11;;;;;;;8.23;2.70;;;;;;;18.66;100.00;101216.72;4860797;29;20026;-77
2021/07/17 05:29:37;;;;;;;8.35;2.25;;;;;;;19.11;100.00;101209.59;4843894;29;20060;-77
2021/07/17 05:32:02;;;;;;;8.05;2.30;;;;;;;19.08;97.33;101215.84;4844033;29;20029;-77
2021/07/17 05:34:27;;;;;;;8.15;2.63;;;;;;;19.09;97.57;101215.81;4860540;29;20036;-77
2021/07/17 05:36:53;;;;;;;8.05;2.28;;;;;;;19.16;96.10;101216.38;4843906;29;20078;-77
2021/07/17 05:39:18;;;;;;;6.07;2.00;;;;;;;19.38;93.96;101220.69;4844303;29;20043;-77
2021/07/17 05:41:43;;;;;;;7.32;2.10;;;;;;;19.65;93.15;101232.66;4843886;29;20352;-77
2021/07/17 05:44:08;;;;;;;8.40;2.03;;;;;;;19.50;91.23;101230.69;4843760;29;20057;-77
2021/07/17 05:46:34;;;;;;;7.25;2.20;;;;;;;19.73;90.92;101229.66;4843846;29;20037;-77
2021/07/17 05:48:59;;;;;;;8.35;2.20;;;;;;;19.90;89.14;101242.06;4844022;29;20547;-77
2021/07/17 05:51:24;;;;;;;7.68;1.75;;;;;;;19.71;89.21;101239.44;4860840;29;20108;-77
2021/07/17 05:53:49;;;;;;;5.82;1.80;;;;;;;19.44;88.83;101242.31;4860398;29;20184;-77
2021/07/17 05:56:15;;;;;;;7.30;2.05;;;;;;;19.77;87.33;101245.25;4844199;29;20025;-77
2021/07/17 05:58:40;;;;;;;10.02;2.10;;;;;;;19.82;86.58;101252.09;4843650;29;20065;-77
2021/07/17 06:01:05;;;;;;;8.73;2.40;;;;;;;19.68;86.61;101253.56;4860546;29;20048;-77
2021/07/17 06:03:30;;;;;;;8.02;2.10;;;;;;;19.77;85.32;101252.31;4860280;29;20033;-77
2021/07/17 06:05:56;;;;;;;7.97;1.80;;;;;;;20.29;81.37;101255.16;4860213;29;20025;-77
2021/07/17 06:08:21;;;;;;;9.57;1.98;;;;;;;20.10;81.95;101257.78;4843619;29;20048;-77
2021/07/17 06:10:46;;;;;;;7.93;2.00;;;;;;;20.45;80.82;101250.00;4843910;29;20040;-77
2021/07/17 06:13:12;;;;;;;8.77;2.05;;;;;;;20.03;83.98;101259.00;4844081;29;20021;-78
2021/07/17 06:15:37;;;;;;;8.50;1.80;;;;;;;20.67;81.35;101257.72;4843689;29;20033;-78
2021/07/17 06:18:02;;;;;;;8.48;2.05;;;;;;;20.92;79.28;101258.22;4863846;29;20037;-78
2021/07/17 06:20:28;;;;;;;7.13;1.65;;;;;;;21.24;77.42;101255.72;4847098;29;20044;-77
2021/07/17 06:22:53;;;;;;;10.43;1.98;;;;;;;20.84;80.98;101255.13;4847120;29;20029;-77
2021/07/17 06:25:18;;;;;;;8.10;2.00;;;;;;;20.91;79.37;101256.50;4847427;29;20036;-78
2021/07/17 06:27:44;;;;;;;10.45;2.30;;;;;;;20.92;77.91;101258.22;4863618;29;20030;-78
2021/07/17 06:30:09;;;;;;;12.30;2.35;;;;;;;20.67;81.23;101266.50;4846880;29;20041;-78
2021/07/17 06:32:35;;;;;;;10.63;2.10;;;;;;;20.59;81.17;101255.47;4863537;29;20040;-77
2021/07/17 06:35:00;;;;;;;8.57;2.07;;;;;;;20.97;78.17;101259.75;4847856;29;20060;-78
2021/07/17 06:37:25;;;;;;;8.20;2.10;;;;;;;21.67;75.96;101261.41;4846979;29;20787;-79
2021/07/17 06:39:51;;;;;;;7.82;2.15;;;;;;;21.56;76.70;101264.63;4863564;29;20094;-77
2021/07/17 06:42:16;;;;;;;9.93;2.15;;;;;;;20.89;77.96;101262.78;4847090;29;20397;-79
2021/07/17 06:44:41;;;;;;;8.63;2.30;;;;;;;21.07;78.65;101261.00;4847491;29;20029;-78
2021/07/17 06:47:07;;;;;;;9.98;2.05;;;;;;;21.17;77.36;101267.53;4863962;29;20025;-78
2021/07/17 06:49:32;;;;;;;8.35;2.00;;;;;;;21.43;76.04;101262.69;4863555;29;20025;-78
2021/07/17 06:51:57;;;;;;;11.27;2.10;;;;;;;21.62;75.54;101273.16;4863705;29;20048;-77
2021/07/17 06:54:23;;;;;;;8.40;2.03;;;;;;;21.12;76.79;101269.53;4863448;29;20061;-78
2021/07/17 06:56:48;;;;;;;8.98;2.10;;;;;;;21.60;75.01;101267.97;4863673;29;20029;-78
2021/07/17 06:59:13;;;;;;;7.22;2.00;;;;;;;21.17;76.44;101264.03;4863243;29;20033;-78
2021/07/17 07:01:40;;;;;;;10.40;2.00;;;;;;;21.94;75.09;101264.34;4863718;29;20041;-78
2021/07/17 07:04:05;;;;;;;9.00;2.22;;;;;;;21.74;76.06;101262.81;4864058;29;20345;-78
2021/07/17 07:06:31;;;;;;;10.52;2.30;;;;;;;22.15;74.01;101272.03;4847416;29;20049;-78
2021/07/17 07:08:56;;;;;;;9.90;2.13;;;;;;;22.39;72.18;101272.50;4846997;29;20032;-78
2021/07/17 07:11:21;;;;;;;9.50;2.13;;;;;;;23.03;69.75;101262.66;4864025;29;20490;-78
2021/07/17 07:13:46;;;;;;;9.25;2.15;;;;;;;22.58;70.60;101274.97;4847349;29;20278;-78
2021/07/17 07:16:13;;;;;;;12.23;2.22;;;;;;;22.37;72.85;101269.09;4863721;29;20029;-79
2021/07/17 07:18:38;;;;;;;10.05;2.30;;;;;;;22.32;72.78;101261.41;4863712;29;20109;-77
2021/07/17 07:21:04;;;;;;;10.98;2.40;;;;;;;22.33;73.15;101272.84;4863230;29;20092;-78
2021/07/17 07:23:29;;;;;;;9.02;2.28;;;;;;;22.93;70.97;101259.69;4847076;29;20033;-78
2021/07/17 07:25:54;;;;;;;10.40;2.10;;;;;;;22.67;71.92;101267.34;4863680;29;20021;-78
2021/07/17 07:28:19;;;;;;;11.93;2.13;;;;;;;22.37;72.38;101264.66;4845799;29;20278;-78
2021/07/17 07:30:45;;;;;;;9.23;2.22;;;;;;;22.94;69.86;101267.56;4863279;29;20057;-78
2021/07/17 07:33:10;;;;;;;11.77;2.20;;;;;;;23.05;66.62;101276.66;4846589;29;20029;-78
2021/07/17 07:35:36;;;;;;;7.35;1.83;;;;;;;23.72;66.80;101277.06;4864604;29;20399;-78
2021/07/17 07:38:01;;;;;;;6.70;1.70;;;;;;;22.78;70.67;101279.94;4848310;29;20026;-79
2021/07/17 07:40:29;;;;;;;10.38;2.67;;;;;;;23.43;69.37;101275.22;4848529;29;20026;-79
2021/07/17 07:42:54;;;;;;;10.02;2.28;;;;;;;23.21;70.25;101269.50;4864736;29;20352;-79
2021/07/17 07:45:20;;;;;;;9.75;2.55;;;;;;;23.80;68.50;101280.94;4863148;29;20026;-78
2021/07/17 07:47:45;;;;;;;7.68;1.63;;;;;;;23.17;70.59;101268.84;4863297;29;20025;-78
2021/07/17 07:50:11;;;;;;;11.07;2.10;;;;;;;23.62;68.95;101274.94;4862552;29;20036;-78
2021/07/17 07:52:37;;;;;;;9.60;2.00;;;;;;;23.94;66.11;101281.88;4846117;29;20479;-78
2021/07/17 07:55:04;;;;;;;11.55;2.28;;;;;;;23.85;65.76;101278.84;4846413;29;20041;-78
2021/07/17 07:57:30;;;;;;;7.68;1.80;;;;;;;23.59;65.42;101274.28;4846104;29;20045;-78
2021/07/17 07:59:55;;;;;;;10.20;1.85;;;;;;;23.70;64.50;101276.28;4862140;29;20021;-77
2021/07/17 08:02:20;;;;;;;9.95;2.05;;;;;;;23.32;66.63;101282.97;4845516;29;20035;-78
2021/07/17 08:04:46;;;;;;;7.30;1.95;;;;;;;23.40;66.67;101279.88;4845831;29;20120;-78
2021/07/17 08:07:11;;;;;;;11.25;1.63;;;;;;;23.62;65.41;101274.94;4862330;29;20064;-78
2021/07/17 08:09:36;;;;;;;8.77;1.80;;;;;;;23.37;68.12;101274.75;4845304;29;20061;-78
2021/07/17 08:12:02;;;;;;;12.35;2.13;;;;;;;23.88;66.80;101283.94;4862304;29;20542;-78
2021/07/17 08:14:27;;;;;;;7.18;1.83;;;;;;;24.75;64.82;101280.19;4846453;29;20040;-78
2021/07/17 08:16:52;;;;;;;7.13;1.87;;;;;;;24.37;65.46;101279.13;4845406;29;20040;-78
2021/07/17 08:19:18;;;;;;;7.93;2.13;;;;;;;23.73;66.22;101271.66;4845234;29;20271;-78
2021/07/17 08:21:43;;;;;;;10.77;2.05;;;;;;;23.63;68.30;101273.16;4861810;29;20044;-78
2021/07/17 08:24:08;;;;;;;10.52;2.10;;;;;;;24.27;66.74;101270.94;4861772;29;20030;-78
2021/07/17 08:26:34;;;;;;;10.55;2.13;;;;;;;24.55;65.09;101270.84;4861693;29;20124;-78
2021/07/17 08:29:00;;;;;;;7.82;1.70;;;;;;;24.50;64.35;101278.25;4844873;29;20033;-78
2021/07/17 08:31:25;;;;;;;13.40;3.17;;;;;;;23.96;66.69;101278.19;4868043;24;20049;-86
2021/07/17 08:33:50;;;;;;;8.73;1.70;;;;;;;24.79;63.22;101276.34;4862626;29;20800;-86
2021/07/17 08:36:17;;;;;;;9.20;1.85;;;;;;;24.60;64.89;101277.66;4845911;29;20286;-86
2021/07/17 08:38:43;;;;;;;9.73;1.98;;;;;;;24.57;63.08;101273.44;4845768;29;20022;-86
2021/07/17 08:41:12;;;;;;;9.75;2.10;;;;;;;24.95;61.37;101273.53;4846394;29;20034;-86
2021/07/17 08:43:39;;;;;;;8.35;2.10;;;;;;;24.98;61.31;101275.13;4867861;29;20118;-85
2021/07/17 08:46:04;;;;;;;10.77;2.13;;;;;;;24.58;64.05;101270.66;4845873;29;20029;-86
2021/07/17 08:48:31;;;;;;;9.98;2.08;;;;;;;24.72;63.11;101271.53;4862161;29;20032;-86
2021/07/17 08:50:59;;;;;;;8.07;2.33;;;;;;;25.65;62.68;101273.16;4845481;29;20169;-86
2021/07/17 08:53:25;;;;;;;8.13;2.08;;;;;;;25.80;62.85;101273.03;4861906;29;20025;-86
2021/07/17 08:55:51;;;;;;;7.50;1.70;;;;;;;26.12;61.01;101274.28;4845492;29;20036;-86
2021/07/17 08:58:16;;;;;;;9.73;2.15;;;;;;;25.06;61.08;101267.47;4845521;29;20038;-86
2021/07/17 09:00:45;;;;;;;7.28;1.42;;;;;;;24.78;62.35;101287.06;4862128;29;20036;-86
2021/07/17 09:03:16;;;;;;;7.93;1.63;;;;;;;24.77;62.71;101277.41;4845363;29;20384;-86
2021/07/17 09:05:45;;;;;;;7.82;1.73;;;;;;;25.91;60.12;101276.66;4845428;29;20025;-86
2021/07/17 09:08:12;;;;;;;6.90;1.50;;;;;;;26.50;56.92;101283.09;4861894;29;20439;-87
2021/07/17 09:10:39;;;;;;;7.40;1.50;;;;;;;26.42;56.84;101275.66;4845435;29;20033;-86
2021/07/17 09:13:07;;;;;;;9.00;1.90;;;;;;;26.46;55.56;101276.28;4861697;29;20022;-86
2021/07/17 09:15:33;;;;;;;7.32;1.77;;;;;;;26.61;54.92;101269.84;4845988;29;20140;-88
2021/07/17 09:17:59;;;;;;;9.35;1.92;;;;;;;26.35;57.29;101280.56;4861816;29;20083;-85
2021/07/17 09:20:24;;;;;;;7.07;1.77;;;;;;;26.18;56.16;101273.81;4861683;29;20435;-86
2021/07/17 09:22:57;;;;;;;7.65;1.70;;;;;;;26.74;57.31;101278.63;4845471;29;20068;-86
2021/07/17 09:25:23;;;;;;;11.05;2.08;;;;;;;27.00;55.28;101276.66;4845374;29;20030;-86
2021/07/17 09:27:48;;;;;;;6.22;1.83;;;;;;;26.98;56.48;101267.09;4847741;29;20400;-89
2021/07/17 09:33:04;;;;;;;8.13;1.70;;;;;;;27.35;54.28;101270.47;5022757;23;20124;-87
2021/07/17 09:35:30;;;;;;;7.72;1.73;;;;;;;27.08;55.48;101263.59;4846042;29;20402;-86
2021/07/17 09:37:56;;;;;;;8.98;1.65;;;;;;;27.65;54.28;101267.22;4861305;29;20025;-85
2021/07/17 09:40:23;;;;;;;6.22;1.60;;;;;;;27.13;53.75;101267.75;4861307;29;20482;-85
2021/07/17 09:42:49;;;;;;;10.55;1.90;;;;;;;26.37;56.56;101265.34;4844786;29;20033;-83
2021/07/17 09:45:40;;;;;;;9.98;1.40;;;;;;;26.83;55.90;101269.94;4845824;29;20030;-84
2021/07/17 09:48:20;;;;;;;6.18;1.63;;;;;;;27.45;54.25;101265.25;4861320;29;20030;-84
2021/07/17 09:50:46;;;;;;;7.30;1.48;;;;;;;27.25;54.04;101265.00;4861669;29;20076;-83
2021/07/17 09:53:11;;;;;;;8.10;1.40;;;;;;;27.02;54.54;101264.06;4865112;29;20105;-84
2021/07/17 09:55:36;;;;;;;5.70;1.60;;;;;;;27.30;53.66;101265.47;4848886;29;20483;-84
2021/07/17 09:58:12;;;;;;;7.17;1.40;;;;;;;26.66;55.31;101269.50;4864760;29;20029;-84
2021/07/17 10:00:38;;;;;;;8.18;1.80;;;;;;;26.79;52.42;101265.81;4848283;29;20338;-84
2021/07/17 10:03:13;;;;;;;9.27;1.83;;;;;;;26.88;54.23;101266.06;4864960;29;20443;-84
2021/07/17 10:05:40;;;;;;;6.60;1.40;;;;;;;26.90;52.90;101264.16;4864951;29;20071;-83
2021/07/17 10:08:13;;;;;;;7.47;1.40;;;;;;;27.12;54.30;101263.34;4849402;29;20036;-83
2021/07/17 10:10:38;;;;;;;5.40;1.47;;;;;;;27.03;52.01;101263.13;4864870;29;20089;-83
2021/07/17 10:13:04;;;;;;;6.95;1.48;;;;;;;27.67;50.77;101267.94;4851515;29;20029;-84
2021/07/17 10:15:32;;;;;;;9.30;1.53;;;;;;;27.99;50.22;101265.41;4864702;29;20025;-84
2021/07/17 10:18:24;;;;;;;9.35;1.70;;;;;;;27.72;51.35;101268.41;4865033;29;20312;-84
2021/07/17 10:20:54;;;;;;;6.35;1.30;;;;;;;27.78;52.16;101269.78;4864527;29;20029;-84
2021/07/17 10:23:20;;;;;;;6.70;1.45;;;;;;;27.70;51.46;101264.16;4864635;29;20033;-84
2021/07/17 10:25:46;;;;;;;10.60;1.88;;;;;;;27.18;51.89;101263.75;4847964;29;20081;-84
2021/07/17 10:28:12;;;;;;;7.88;1.88;;;;;;;27.22;51.80;101270.56;4847830;29;20021;-84
2021/07/17 10:30:38;;;;;;;9.55;1.60;;;;;;;26.70;53.67;101263.00;4864560;29;20086;-83
2021/07/17 10:33:03;;;;;;;8.88;1.45;;;;;;;28.34;50.12;101275.00;4864232;29;20487;-84
2021/07/17 10:35:29;;;;;;;9.02;1.73;;;;;;;27.56;52.61;101281.28;4864402;29;20109;-84
2021/07/17 10:37:57;;;;;;;7.97;1.92;;;;;;;27.30;50.90;101270.81;4864165;29;20364;-84
2021/07/17 10:40:23;;;;;;;7.80;1.75;;;;;;;27.74;51.96;101274.50;4848290;29;20508;-84
2021/07/17 10:42:53;;;;;;;8.32;1.73;;;;;;;28.11;48.90;101263.56;4864020;29;20033;-84
2021/07/17 10:45:38;;;;;;;9.13;2.08;;;;;;;27.90;50.72;101267.97;4847884;29;20033;-84
2021/07/17 10:48:22;;;;;;;11.07;1.92;;;;;;;28.26;49.82;101268.59;4864610;29;20054;-84
2021/07/17 10:50:47;;;;;;;9.60;1.77;;;;;;;27.47;49.13;101255.34;4864077;29;20037;-84
2021/07/17 10:53:44;;;;;;;9.45;2.03;;;;;;;27.30;50.18;101268.13;4864156;29;20113;-84
2021/07/17 10:56:43;;;;;;;6.85;1.50;;;;;;;27.62;50.28;101258.59;4847352;29;20026;-85
2021/07/17 10:59:11;;;;;;;8.15;1.60;;;;;;;28.06;49.66;101263.09;4853518;29;20090;-84
2021/07/17 11:01:55;;;;;;;5.43;1.40;;;;;;;27.93;47.61;101263.22;4846887;29;20026;-84
2021/07/17 11:04:53;;;;;;;8.95;2.00;;;;;;;27.42;50.71;101258.34;4847189;29;20025;-84
2021/07/17 11:07:19;;;;;;;7.47;1.63;;;;;;;27.23;50.42;101258.94;4847311;29;20049;-84
2021/07/17 11:09:55;;;;;;;8.20;1.73;;;;;;;27.45;50.82;101263.44;4863688;29;20025;-84
2021/07/17 11:12:21;;;;;;;8.13;1.67;;;;;;;27.67;48.76;101256.41;4853599;29;20048;-84
2021/07/17 11:14:47;;;;;;;7.05;1.80;;;;;;;27.40;48.75;101251.44;4887671;29;20041;-84
2021/07/17 11:17:33;;;;;;;9.63;2.10;;;;;;;28.45;47.95;101247.50;4871745;29;20013;-83